createdAt,value
2023-05-08T00:00:59.446Z,72.33
2023-05-08T00:03:27.189Z,72.09
2023-05-08T00:05:56.323Z,72.11
2023-05-08T00:08:23.774Z,71.48
2023-05-08T00:10:51.347Z,71.42
2023-05-08T00:13:18.167Z,71.03
2023-05-08T00:15:45.050Z,71.18
2023-05-08T00:18:11.916Z,71.69
2023-05-08T00:20:38.670Z,71.36
2023-05-08T00:23:05.421Z,71.32
2023-05-08T00:25:32.190Z,71.38
2023-05-08T00:27:59.980Z,71.26
2023-05-08T00:30:27.325Z,71.23
2023-05-08T00:32:54.477Z,70.67
2023-05-08T00:35:22.049Z,70.82
2023-05-08T00:37:48.989Z,70.68
2023-05-08T00:40:16.229Z,70.69
2023-05-08T00:42:43.239Z,70.31
2023-05-08T00:45:10.393Z,70.45
2023-05-08T00:47:38.064Z,69.97
2023-05-08T00:50:05.492Z,69.97
2023-05-08T00:52:33.699Z,69.76
2023-05-08T00:55:03.236Z,69.92
2023-05-08T00:57:34.581Z,69.88
2023-05-08T01:00:03.666Z,70.09
2023-05-08T01:02:31.681Z,69.77
2023-05-08T01:04:59.089Z,69.53
2023-05-08T01:07:26.146Z,69.26
2023-05-08T01:09:52.947Z,69.37
2023-05-08T01:12:28.698Z,69.32
2023-05-08T01:15:11.767Z,69.26
2023-05-08T01:17:39.192Z,69.56
2023-05-08T01:20:17.913Z,69.72
2023-05-08T01:23:08.725Z,69.38
2023-05-08T01:25:35.480Z,69.66
2023-05-08T01:28:05.721Z,70.36
2023-05-08T01:30:49.503Z,70.41
2023-05-08T01:33:25.053Z,70.79
2023-05-08T01:35:59.231Z,70.78
2023-05-08T01:38:32.396Z,70.91
2023-05-08T01:41:10.585Z,70.84
2023-05-08T01:43:54.004Z,71.04
2023-05-08T01:46:27.005Z,71.05
2023-05-08T01:49:05.407Z,70.88
2023-05-08T01:51:39.639Z,70.65
2023-05-08T01:54:10.027Z,70.94
2023-05-08T01:56:39.171Z,70.88
2023-05-08T01:59:07.192Z,70.78
2023-05-08T02:01:34.860Z,70.90
2023-05-08T02:04:04.832Z,70.91
2023-05-08T02:06:32.492Z,70.96
2023-05-08T02:09:00.846Z,70.87
2023-05-08T02:11:32.449Z,70.10
2023-05-08T02:14:01.918Z,69.68
2023-05-08T02:16:30.519Z,69.03
2023-05-08T02:19:00.786Z,69.00
2023-05-08T02:21:28.955Z,68.62
2023-05-08T02:23:57.888Z,68.43
2023-05-08T02:26:26.560Z,68.70
2023-05-08T02:28:55.995Z,68.91
2023-05-08T02:31:24.547Z,68.65
2023-05-08T02:33:52.994Z,68.77
2023-05-08T02:36:21.931Z,68.89
2023-05-08T02:38:52.853Z,68.50
2023-05-08T02:41:22.374Z,68.40
2023-05-08T02:43:52.061Z,67.62
2023-05-08T02:46:25.045Z,67.20
2023-05-08T02:48:53.303Z,67.64
2023-05-08T02:51:29.391Z,67.66
2023-05-08T02:54:10.688Z,67.02
2023-05-08T02:56:44.129Z,66.78
2023-05-08T02:59:18.224Z,66.81
2023-05-08T03:01:52.748Z,67.33
2023-05-08T03:04:28.635Z,67.60
2023-05-08T03:06:58.316Z,67.61
2023-05-08T03:09:32.041Z,67.51
2023-05-08T03:12:03.893Z,67.78
2023-05-08T03:14:55.450Z,67.95
2023-05-08T03:17:25.945Z,67.73
2023-05-08T03:19:58.216Z,67.74
2023-05-08T03:22:27.729Z,67.83
2023-05-08T03:24:58.014Z,67.94
2023-05-08T03:27:26.419Z,68.15
2023-05-08T03:29:55.797Z,67.91
2023-05-08T03:32:26.338Z,68.01
2023-05-08T03:34:55.716Z,68.07
2023-05-08T03:37:22.977Z,68.10
2023-05-08T03:39:52.037Z,68.35
2023-05-08T03:42:22.640Z,68.42
2023-05-08T03:44:51.788Z,68.32
2023-05-08T03:47:19.673Z,68.17
2023-05-08T03:49:47.862Z,68.35
2023-05-08T03:52:15.805Z,68.19
2023-05-08T03:54:43.325Z,68.14
2023-05-08T03:57:11.834Z,68.28
2023-05-08T04:00:01.705Z,68.23
2023-05-08T04:02:42.523Z,68.54
2023-05-08T04:05:13.766Z,68.58
2023-05-08T04:07:51.138Z,68.27
2023-05-08T04:10:29.406Z,68.24
2023-05-08T04:13:08.796Z,68.03
2023-05-08T04:15:47.338Z,68.30
2023-05-08T04:18:19.076Z,68.19
2023-05-08T04:20:48.347Z,68.22
2023-05-08T04:23:19.924Z,67.72
2023-05-08T04:25:49.557Z,66.80
2023-05-08T04:28:18.123Z,66.42
2023-05-08T04:30:45.595Z,66.44
2023-05-08T04:33:13.070Z,66.44
2023-05-08T04:35:40.602Z,65.79
2023-05-08T04:38:07.680Z,65.30
2023-05-08T04:40:34.820Z,65.63
2023-05-08T04:43:02.709Z,66.24
2023-05-08T04:45:29.702Z,65.91
2023-05-08T04:47:56.504Z,65.70
2023-05-08T04:50:23.884Z,65.86
2023-05-08T04:52:51.466Z,65.44
2023-05-08T04:55:18.458Z,65.18
2023-05-08T04:57:46.285Z,65.16
2023-05-08T05:00:14.217Z,64.76
2023-05-08T05:02:41.862Z,65.30
2023-05-08T05:05:08.869Z,64.92
2023-05-08T05:07:36.220Z,65.22
2023-05-08T05:10:04.372Z,65.79
2023-05-08T05:12:31.634Z,65.80
2023-05-08T05:14:58.688Z,65.44
2023-05-08T05:17:27.099Z,65.82
2023-05-08T05:19:53.876Z,65.68
2023-05-08T05:22:21.182Z,64.60
2023-05-08T05:24:48.016Z,64.04
2023-05-08T05:27:15.134Z,63.53
2023-05-08T05:29:44.377Z,64.02
2023-05-08T05:32:12.122Z,64.36
2023-05-08T05:34:39.127Z,64.73
2023-05-08T05:37:07.970Z,64.60
2023-05-08T05:39:36.387Z,64.39
2023-05-08T05:42:04.489Z,64.44
2023-05-08T05:44:31.751Z,65.04
2023-05-08T05:47:00.305Z,65.23
2023-05-08T05:49:27.270Z,64.76
2023-05-08T05:51:54.154Z,65.01
2023-05-08T05:54:21.052Z,65.08
2023-05-08T05:56:48.414Z,65.56
2023-05-08T05:59:15.314Z,65.82
2023-05-08T06:01:42.183Z,65.84
2023-05-08T06:04:09.135Z,64.26
2023-05-08T06:06:35.999Z,63.75
2023-05-08T06:09:02.869Z,63.59
2023-05-08T06:11:29.841Z,63.05
2023-05-08T06:13:56.722Z,63.07
2023-05-08T06:16:25.027Z,62.91
2023-05-08T06:18:52.009Z,62.57
2023-05-08T06:21:18.790Z,61.97
2023-05-08T06:23:45.609Z,62.49
2023-05-08T06:26:12.392Z,63.46
2023-05-08T06:28:39.787Z,62.87
2023-05-08T06:31:06.847Z,62.21
2023-05-08T06:33:33.634Z,61.95
2023-05-08T06:36:00.648Z,61.06
2023-05-08T06:38:27.449Z,60.46
2023-05-08T06:40:55.329Z,59.84
2023-05-08T06:43:22.361Z,59.66
2023-05-08T06:45:49.860Z,58.97
2023-05-08T06:48:16.619Z,59.04
2023-05-08T06:50:44.620Z,58.69
2023-05-08T06:53:11.463Z,58.73
2023-05-08T06:55:38.337Z,57.70
2023-05-08T06:58:05.200Z,57.22
2023-05-08T07:00:31.989Z,57.45
2023-05-08T07:02:58.965Z,57.71
2023-05-08T07:05:26.068Z,57.17
2023-05-08T07:07:54.276Z,57.15
2023-05-08T07:10:23.074Z,56.45
2023-05-08T07:12:50.091Z,56.94
2023-05-08T07:15:25.186Z,56.77
2023-05-08T07:17:52.861Z,56.85
2023-05-08T07:20:19.919Z,57.95
2023-05-08T07:22:46.724Z,57.07
2023-05-08T07:25:13.808Z,55.61
2023-05-08T07:27:40.950Z,54.92
2023-05-08T07:30:08.673Z,55.19
2023-05-08T07:32:35.852Z,55.36
2023-05-08T07:35:03.845Z,54.83
2023-05-08T07:37:30.864Z,55.72
2023-05-08T07:39:57.814Z,55.77
2023-05-08T07:42:24.648Z,54.99
2023-05-08T07:44:55.111Z,55.31
2023-05-08T07:47:22.669Z,54.24
2023-05-08T07:49:49.642Z,53.71
2023-05-08T07:52:16.800Z,53.61
2023-05-08T07:54:44.103Z,54.05
2023-05-08T07:57:11.720Z,54.78
2023-05-08T07:59:38.781Z,54.41
2023-05-08T08:02:05.773Z,54.37
2023-05-08T08:04:33.094Z,53.41
2023-05-08T08:07:00.894Z,52.53
2023-05-08T08:09:29.211Z,52.94
2023-05-08T08:11:56.010Z,53.47
2023-05-08T08:14:22.945Z,53.51
2023-05-08T08:16:49.915Z,52.88
2023-05-08T08:19:16.789Z,52.67
2023-05-08T08:21:44.302Z,52.65
2023-05-08T08:24:11.276Z,51.82
2023-05-08T08:26:38.041Z,51.60
2023-05-08T08:29:04.792Z,51.58
2023-05-08T08:31:31.713Z,51.81
2023-05-08T08:33:58.568Z,51.02
2023-05-08T08:36:25.378Z,49.86
2023-05-08T08:38:52.634Z,48.80
2023-05-08T08:41:19.534Z,48.21
2023-05-08T08:43:46.406Z,48.69
2023-05-08T08:46:15.484Z,48.51
2023-05-08T08:48:45.967Z,49.03
2023-05-08T08:51:28.659Z,48.65
2023-05-08T08:54:07.854Z,47.37
2023-05-08T08:56:38.574Z,48.49
2023-05-08T08:59:06.686Z,48.19
2023-05-08T09:01:38.433Z,46.36
2023-05-08T09:04:05.802Z,45.77
2023-05-08T09:06:37.430Z,44.94
2023-05-08T09:09:05.666Z,46.13
2023-05-08T09:11:33.042Z,46.04
2023-05-08T09:13:59.894Z,45.33
2023-05-08T09:16:28.193Z,46.27
2023-05-08T09:18:55.511Z,45.92
2023-05-08T09:21:23.481Z,44.62
2023-05-08T09:24:05.865Z,44.84
2023-05-08T09:26:35.145Z,44.62
2023-05-08T09:29:20.035Z,42.86
2023-05-08T09:31:50.117Z,42.31
2023-05-08T09:34:35.870Z,42.31
2023-05-08T09:37:06.082Z,42.99
2023-05-08T09:39:32.901Z,43.68
2023-05-08T09:42:01.772Z,44.10
2023-05-08T09:44:28.855Z,44.75
2023-05-08T09:47:11.353Z,44.83
2023-05-08T09:49:39.970Z,44.45
2023-05-08T09:52:08.580Z,45.15
2023-05-08T09:54:35.745Z,45.59
2023-05-08T09:57:13.084Z,44.89
2023-05-08T09:59:39.976Z,43.11
2023-05-08T10:02:16.470Z,43.43
2023-05-08T10:04:43.294Z,43.73
2023-05-08T10:07:10.253Z,43.39
2023-05-08T10:09:49.831Z,43.18
2023-05-08T10:12:18.818Z,42.31
2023-05-08T10:14:46.894Z,41.81
2023-05-08T10:17:19.343Z,42.47
2023-05-08T10:19:50.953Z,41.96
2023-05-08T10:22:20.688Z,41.81
2023-05-08T10:24:54.272Z,42.11
2023-05-08T10:27:30.589Z,42.88
2023-05-08T10:30:02.169Z,43.31
2023-05-08T10:32:37.685Z,43.48
2023-05-08T10:35:08.548Z,44.76
2023-05-08T10:37:37.139Z,44.29
2023-05-08T10:40:05.339Z,44.60
2023-05-08T10:42:35.800Z,44.54
2023-05-08T10:45:07.710Z,45.17
2023-05-08T10:47:48.978Z,44.45
2023-05-08T10:50:37.593Z,45.37
2023-05-08T10:53:23.075Z,45.70
2023-05-08T10:55:51.781Z,46.01
2023-05-08T10:58:34.029Z,46.15
2023-05-08T11:01:01.005Z,45.24
2023-05-08T11:03:32.677Z,42.66
2023-05-08T11:06:01.707Z,41.16
2023-05-08T11:08:31.041Z,41.14
2023-05-08T11:10:59.354Z,40.17
2023-05-08T11:13:33.638Z,41.22
2023-05-08T11:16:01.329Z,42.19
2023-05-08T11:18:41.760Z,42.15
2023-05-08T11:21:22.524Z,41.67
2023-05-08T11:23:58.290Z,41.31
2023-05-08T11:26:40.685Z,41.74
2023-05-08T11:29:17.643Z,42.05
2023-05-08T11:31:53.268Z,42.36
2023-05-08T11:34:43.136Z,42.31
2023-05-08T11:37:12.348Z,41.71
2023-05-08T11:39:39.096Z,41.97
2023-05-08T11:42:24.866Z,41.39
2023-05-08T11:45:08.847Z,42.05
2023-05-08T11:47:39.530Z,41.59
2023-05-08T11:50:08.227Z,40.72
2023-05-08T11:52:36.563Z,41.24
2023-05-08T11:55:05.873Z,40.96
2023-05-08T11:57:33.474Z,41.94
2023-05-08T12:00:15.927Z,40.03
2023-05-08T12:02:46.757Z,40.50
2023-05-08T12:05:13.764Z,40.81
2023-05-08T12:07:47.623Z,41.54
2023-05-08T12:10:16.446Z,41.17
2023-05-08T12:12:44.683Z,40.49
2023-05-08T12:15:15.466Z,39.97
2023-05-08T12:17:43.324Z,40.38
2023-05-08T12:20:13.636Z,39.40
2023-05-08T12:22:43.680Z,38.82
2023-05-08T12:25:12.158Z,36.90
2023-05-08T12:27:39.677Z,37.31
2023-05-08T12:30:09.753Z,38.23
2023-05-08T12:32:39.042Z,38.95
2023-05-08T12:35:09.086Z,38.46
2023-05-08T12:37:36.765Z,37.91
2023-05-08T12:40:05.005Z,38.13
2023-05-08T12:42:50.206Z,38.03
2023-05-08T12:45:27.149Z,38.61
2023-05-08T12:48:00.049Z,38.53
2023-05-08T12:50:27.657Z,38.41
2023-05-08T12:52:54.636Z,39.09
2023-05-08T12:55:23.390Z,39.43
2023-05-08T12:57:51.927Z,39.49
2023-05-08T13:00:18.923Z,39.60
2023-05-08T13:02:54.938Z,39.75
2023-05-08T13:05:23.892Z,40.48
2023-05-08T13:07:51.612Z,40.57
2023-05-08T13:10:21.432Z,40.71
2023-05-08T13:12:49.883Z,41.23
2023-05-08T13:15:16.952Z,40.10
2023-05-08T13:17:43.854Z,38.11
2023-05-08T13:20:11.688Z,36.89
2023-05-08T13:22:38.919Z,36.68
2023-05-08T13:25:06.404Z,37.38
2023-05-08T13:27:33.171Z,36.69
2023-05-08T13:29:59.954Z,37.19
2023-05-08T13:32:26.905Z,37.37
2023-05-08T13:34:56.435Z,38.54
2023-05-08T13:37:26.389Z,38.93
2023-05-08T13:39:53.145Z,39.28
2023-05-08T13:42:20.061Z,39.70
2023-05-08T13:44:47.791Z,40.25
2023-05-08T13:47:14.569Z,40.27
2023-05-08T13:49:41.486Z,40.26
2023-05-08T13:52:08.251Z,40.49
2023-05-08T13:54:35.099Z,40.66
2023-05-08T13:57:02.809Z,41.31
2023-05-08T13:59:31.436Z,41.61
2023-05-08T14:01:58.479Z,41.55
2023-05-08T14:04:25.407Z,42.02
2023-05-08T14:06:52.410Z,42.77
2023-05-08T14:09:19.503Z,42.29
2023-05-08T14:11:46.327Z,42.75
2023-05-08T14:14:13.116Z,43.06
2023-05-08T14:16:40.013Z,42.92
2023-05-08T14:19:09.015Z,42.18
2023-05-08T14:21:37.051Z,42.20
2023-05-08T14:24:04.023Z,40.62
2023-05-08T14:26:30.883Z,40.43
2023-05-08T14:28:59.967Z,40.31
2023-05-08T14:31:40.485Z,40.70
2023-05-08T14:34:07.437Z,41.22
2023-05-08T14:36:34.586Z,41.57
2023-05-08T14:39:01.628Z,41.18
2023-05-08T14:41:29.380Z,41.32
2023-05-08T14:43:56.996Z,41.09
2023-05-08T14:46:25.126Z,41.37
2023-05-08T14:48:53.883Z,41.91
2023-05-08T14:51:21.189Z,41.69
2023-05-08T14:53:48.120Z,42.21
2023-05-08T14:56:15.251Z,42.41
2023-05-08T14:58:42.150Z,42.40
2023-05-08T15:01:09.066Z,42.98
2023-05-08T15:03:36.131Z,42.89
2023-05-08T15:06:03.014Z,43.26
2023-05-08T15:08:31.116Z,43.06
2023-05-08T15:10:57.977Z,43.17
2023-05-08T15:13:24.817Z,43.63
2023-05-08T15:15:51.721Z,43.24
2023-05-08T15:18:18.610Z,43.74
2023-05-08T15:20:45.669Z,44.42
2023-05-08T15:23:12.527Z,44.17
2023-05-08T15:25:39.507Z,43.88
2023-05-08T15:28:06.257Z,43.07
2023-05-08T15:30:33.035Z,43.40
2023-05-08T15:33:00.100Z,43.95
2023-05-08T15:35:26.952Z,44.24
2023-05-08T15:37:53.723Z,44.19
2023-05-08T15:40:20.678Z,44.74
2023-05-08T15:42:47.457Z,45.41
2023-05-08T15:45:15.124Z,45.99
2023-05-08T15:47:42.219Z,45.22
2023-05-08T15:50:09.555Z,45.75
2023-05-08T15:52:36.381Z,45.79
2023-05-08T15:55:03.424Z,46.47
2023-05-08T15:57:30.437Z,46.54
2023-05-08T15:59:57.278Z,46.72
2023-05-08T16:02:24.133Z,47.36
2023-05-08T16:04:51.551Z,47.51
2023-05-08T16:07:18.421Z,47.15
2023-05-08T16:09:45.480Z,47.30
2023-05-08T16:12:12.258Z,47.13
2023-05-08T16:14:39.118Z,47.19
2023-05-08T16:17:12.971Z,46.58
2023-05-08T16:19:40.253Z,46.49
2023-05-08T16:22:07.071Z,46.50
2023-05-08T16:24:38.251Z,46.58
2023-05-08T16:27:05.167Z,45.97
2023-05-08T16:29:33.081Z,45.95
2023-05-08T16:31:59.879Z,46.47
2023-05-08T16:34:26.645Z,47.06
2023-05-08T16:36:53.359Z,47.33
2023-05-08T16:39:21.468Z,47.12
2023-05-08T16:41:48.440Z,47.36
2023-05-08T16:44:15.236Z,47.52
2023-05-08T16:46:42.314Z,47.88
2023-05-08T16:49:09.137Z,48.10
2023-05-08T16:51:36.980Z,48.89
2023-05-08T16:54:04.651Z,49.05
2023-05-08T16:56:31.544Z,49.54
2023-05-08T16:58:58.432Z,50.23
2023-05-08T17:01:25.340Z,50.31
2023-05-08T17:03:54.490Z,50.26
2023-05-08T17:06:21.875Z,50.50
2023-05-08T17:08:48.937Z,50.11
2023-05-08T17:11:15.860Z,50.05
2023-05-08T17:13:43.370Z,50.41
2023-05-08T17:16:10.687Z,50.92
2023-05-08T17:18:37.663Z,51.38
2023-05-08T17:21:04.699Z,50.89
2023-05-08T17:23:31.541Z,51.07
2023-05-08T17:26:00.066Z,51.07
2023-05-08T17:28:27.139Z,51.17
2023-05-08T17:30:55.908Z,51.57
2023-05-08T17:33:22.939Z,51.33
2023-05-08T17:35:49.765Z,51.59
2023-05-08T17:38:16.561Z,51.61
2023-05-08T17:40:45.660Z,51.76
2023-05-08T17:43:12.494Z,52.43
2023-05-08T17:45:39.394Z,52.49
2023-05-08T17:48:09.171Z,52.74
2023-05-08T17:50:36.314Z,52.94
2023-05-08T17:53:03.026Z,53.25
2023-05-08T17:55:34.960Z,53.57
2023-05-08T17:58:01.683Z,53.79
2023-05-08T18:00:28.486Z,54.02
2023-05-08T18:02:55.601Z,54.53
2023-05-08T18:05:22.969Z,54.66
2023-05-08T18:07:49.804Z,55.05
2023-05-08T18:10:16.749Z,55.12
2023-05-08T18:12:43.779Z,55.41
2023-05-08T18:15:11.218Z,56.19
2023-05-08T18:17:38.013Z,56.67
2023-05-08T18:20:07.882Z,56.92
2023-05-08T18:22:35.340Z,59.08
2023-05-08T18:25:02.264Z,59.78
2023-05-08T18:27:29.015Z,59.67
2023-05-08T18:29:56.005Z,60.02
2023-05-08T18:32:23.131Z,59.93
2023-05-08T18:34:49.877Z,60.20
2023-05-08T18:37:16.833Z,60.48
2023-05-08T18:39:43.557Z,61.53
2023-05-08T18:42:10.324Z,61.81
2023-05-08T18:44:37.106Z,62.20
2023-05-08T18:47:05.365Z,62.05
2023-05-08T18:49:32.259Z,62.78
2023-05-08T18:51:59.178Z,63.23
2023-05-08T18:54:27.049Z,63.31
2023-05-08T18:56:54.462Z,63.64
2023-05-08T18:59:21.633Z,63.95
2023-05-08T19:01:50.661Z,63.96
2023-05-08T19:04:17.620Z,64.20
2023-05-08T19:06:44.422Z,64.61
2023-05-08T19:09:11.311Z,65.06
2023-05-08T19:11:38.029Z,65.50
2023-05-08T19:14:04.834Z,65.94
2023-05-08T19:16:31.726Z,66.10
2023-05-08T19:18:58.556Z,66.79
2023-05-08T19:21:25.354Z,67.14
2023-05-08T19:23:52.182Z,67.93
2023-05-08T19:26:18.898Z,68.17
2023-05-08T19:28:45.978Z,68.30
2023-05-08T19:31:12.730Z,68.57
2023-05-08T19:33:39.543Z,68.61
2023-05-08T19:36:06.388Z,69.21
2023-05-08T19:38:33.245Z,69.55
2023-05-08T19:41:00.101Z,70.21
2023-05-08T19:43:26.972Z,70.53
2023-05-08T19:45:53.933Z,70.68
2023-05-08T19:48:20.879Z,71.40
2023-05-08T19:50:47.733Z,71.72
2023-05-08T19:53:14.521Z,72.38
2023-05-08T19:55:41.580Z,72.86
2023-05-08T19:58:08.309Z,72.83
2023-05-08T20:00:37.136Z,72.91
2023-05-08T20:03:04.091Z,73.00
2023-05-08T20:05:30.937Z,72.74
2023-05-08T20:07:57.763Z,73.15
2023-05-08T20:10:24.686Z,73.47
2023-05-08T20:12:51.602Z,73.66
2023-05-08T20:15:19.682Z,73.61
2023-05-08T20:17:46.512Z,73.38
2023-05-08T20:20:13.687Z,73.35
2023-05-08T20:22:40.829Z,73.51
2023-05-08T20:25:08.217Z,73.40
2023-05-08T20:27:35.038Z,73.36
2023-05-08T20:30:02.090Z,73.76
2023-05-08T20:32:28.954Z,74.02
2023-05-08T20:34:55.769Z,74.02
2023-05-08T20:37:22.588Z,74.24
2023-05-08T20:39:49.337Z,74.29
2023-05-08T20:42:16.080Z,74.34
2023-05-08T20:44:43.188Z,74.65
2023-05-08T20:47:10.135Z,74.75
2023-05-08T20:49:36.886Z,74.82
2023-05-08T20:52:05.686Z,74.81
2023-05-08T20:54:32.720Z,74.83
2023-05-08T20:56:59.685Z,74.89
2023-05-08T20:59:26.658Z,75.17
2023-05-08T21:01:53.717Z,75.24
2023-05-08T21:04:20.584Z,75.79
2023-05-08T21:06:47.397Z,75.81
2023-05-08T21:09:14.194Z,75.88
2023-05-08T21:11:41.432Z,75.79
2023-05-08T21:14:08.251Z,76.03
2023-05-08T21:16:35.066Z,75.85
2023-05-08T21:19:01.924Z,76.01
2023-05-08T21:21:28.704Z,76.04
2023-05-08T21:23:55.812Z,75.80
2023-05-08T21:26:23.922Z,75.93
2023-05-08T21:28:52.555Z,75.95
2023-05-08T21:31:19.904Z,75.96
2023-05-08T21:33:46.772Z,76.17
2023-05-08T21:36:13.637Z,76.31
2023-05-08T21:38:41.733Z,76.29
2023-05-08T21:41:09.117Z,76.19
2023-05-08T21:43:36.658Z,75.77
2023-05-08T21:46:06.243Z,75.39
2023-05-08T21:48:33.774Z,75.09
2023-05-08T21:51:00.715Z,75.16
2023-05-08T21:53:27.748Z,75.40
2023-05-08T21:55:54.657Z,75.88
2023-05-08T21:58:21.459Z,76.12
2023-05-08T22:00:48.350Z,76.42
2023-05-08T22:03:15.767Z,76.20
2023-05-08T22:05:42.626Z,75.98
2023-05-08T22:08:09.506Z,75.97
2023-05-08T22:10:36.697Z,75.76
2023-05-08T22:13:03.664Z,75.97
2023-05-08T22:15:31.080Z,76.18
2023-05-08T22:17:59.148Z,76.50
2023-05-08T22:20:26.149Z,76.69
2023-05-08T22:22:52.908Z,76.87
2023-05-08T22:25:21.907Z,77.41
2023-05-08T22:27:48.815Z,77.36
2023-05-08T22:30:15.663Z,77.54
2023-05-08T22:32:42.831Z,77.25
2023-05-08T22:35:09.979Z,77.10
2023-05-08T22:37:37.036Z,76.83
2023-05-08T22:40:04.026Z,76.77
2023-05-08T22:42:30.925Z,76.86
2023-05-08T22:44:57.943Z,77.00
2023-05-08T22:47:25.978Z,76.68
2023-05-08T22:49:52.933Z,76.40
2023-05-08T22:52:19.696Z,76.46
2023-05-08T22:54:46.446Z,76.13
2023-05-08T22:57:14.303Z,75.69
2023-05-08T22:59:41.072Z,75.23
2023-05-08T23:02:07.819Z,75.14
2023-05-08T23:04:34.712Z,74.93
2023-05-08T23:07:02.729Z,75.15
2023-05-08T23:09:30.931Z,74.98
2023-05-08T23:11:57.788Z,75.20
2023-05-08T23:14:24.590Z,75.60
2023-05-08T23:16:51.547Z,75.73
2023-05-08T23:19:18.354Z,75.74
2023-05-08T23:21:45.159Z,75.42
2023-05-08T23:24:11.942Z,75.70
2023-05-08T23:26:41.376Z,75.71
2023-05-08T23:29:08.804Z,75.85
2023-05-08T23:31:35.768Z,76.01
2023-05-08T23:34:02.520Z,76.28
2023-05-08T23:36:29.247Z,76.77
2023-05-08T23:38:56.296Z,77.08
2023-05-08T23:41:23.208Z,77.28
2023-05-08T23:43:50.440Z,77.85
2023-05-08T23:46:17.222Z,77.91
2023-05-08T23:48:44.075Z,78.16
2023-05-08T23:51:10.817Z,78.01
2023-05-08T23:53:37.594Z,78.57
2023-05-08T23:56:04.722Z,78.55
2023-05-08T23:58:31.571Z,78.26
